Hlavní strana
METAR-TAF:

METAR-TAF

Letiště :

Danville, Virginie, Spojené státy americké

zeměpisná šířka: 36-34-22N, zeměpisná délka: 079-20-10W, výška: 174 m

Aktuální stav počasí

Zpráva byla vytvořena před 44 minutami, v 12:53 UTC
Západojihozápadní vítr 8 kt
Teplota 27°C
Vlhkost vzduchu 70%
Tlak 1010 hPa
Viditelnost: 16.1 km
Jasno

METAR: KDAN 211253Z AUTO 24008KT 10SM CLR 27/21 A2983 RMK AO2 SLP088 T02670211

Čas: 09:37 (13:37 UTC)

Předpověď počasí

Zpráva byla vytvořena před 1 hodinou a 3 minutami, v 12:34 UTC
Předpověď platná od 21 v 13 UTC do 22 v 12 UTC
Západojihozápadní vítr 4 kt
Viditelnost: 10 km
Polojasno ve výšce 3000 ft
Od 21 v 1700 UTC
Západojihozápadní vítr 9 kt s nárazy do 17 kt
Viditelnost: 10 km
Polojasno ve výšce 20000 ft
Od 22 v 0000 UTC
Západojihozápadní vítr 7 kt
Viditelnost: 10 km
Polojasno ve výšce 5000 ft
Oblačno až skoro zataženo ve výšce 15000 ft

TAF: KDAN 211234Z 2113/2212 25004KT P6SM SCT030 FM211700 25009G17KT P6SM SCT200 FM220000 24007KT P6SM SCT050 BKN150

Stav a předpovědi počasí z více než 4 000 letišť (zprávy METAR a TAF).

Červené a žluté tečky na mapě představují dostupné meteorologické stanice.

Když kurzor umístíte na tečku, zobrazí se název stanice.

Pak kliknutím zobrazíte stav a předpověď počasí.

Chcete-li změnit mapu, kliknutím na zelené tlačítko se znaménkem +mapu přiblížíte, kliknutím na zelené tlačítko se znaménkem – mapu oddálíte a kliknutím na zelené šipky přejdete na sousední mapy.


METAR-TAF: